الصفحة الرئيسية
METAR-TAF:

METAR-TAF

مطار :

Sandakan, ماليزيا

دائرة عرض: 05-54N, خط طول: 118-04E, ارتفاع: 12 متر

مراقبة الطقس الحالي

تاريخ ووقت الإصدار 1ساعة و 6 دقيقة قبل الساعة 18:00UTC
رياح هادئة
درجة الحرارة 27°درجة مئوية
الرطوبة 94%
ضغط 1007 hPa
الرؤية 10 كم أو أكثر
غيوم قليلة على ارتفاع 1600 قدم
غيوم مفككة على ارتفاع 29000 قدم

METAR: WBKS 221800Z 00000KT 9999 FEW016 BKN290 27/26 Q1007

زمن: 03:06 (19:06 UTC)

توقعات

تاريخ ووقت الإصدار 2ساعات و 6 دقيقة قبل الساعة 17:00UTC
التوقعات صالحة من22 الساعة 18 UTC إلى 23 الساعة 18 UTC
ريح 3 عقدةمن اتجاهات متغيرة
الرؤية 10 كم أو أكثر
غيوم قليلة على ارتفاع 1600 قدم
أصبح
من 23 الساعة 01 UTC إلى 23 الساعة 03 UTC
ريح 8 عقدة من الشمال الشرقي

TAF: WBKS 221700Z 2218/2318 VRB03KT 9999 FEW016 BECMG 2301/2303 05008KT

أرصاد الطقس والتوقعات من أكثر من 4000 مطار (تقارير الطقس للمطار METAR والتنبؤ بالطقس بالمطارTAF).

المحطات المتاحة هي النقط الصفراء والحمراء على الخريطة.

حرك المؤشر فوق النقطة لمعرفة اسم المحطة.

ثم انقر لمعرفة أرصاد وتوقعات الطقس.

لتغيير الخارطة: اضغط على الأزرار الخضراء مع رمز الصليب الأسود للتكبير. على الزر الأخضر مع شرطة للتصغير، أو على الأسهم الخضراء للخرائط المجاورة.


METAR-TAF: